sensor_id;sensor_type;location;lat;lon;timestamp;P1;durP1;ratioP1;P2;durP2;ratioP2
21943;SDS011;11136;48.778;9.126;2022-09-03T00:05:23;2.60;;;1.30;;
21943;SDS011;11136;48.778;9.126;2022-09-03T00:07:59;2.35;;;1.10;;
21943;SDS011;11136;48.778;9.126;2022-09-03T00:10:36;3.45;;;1.40;;
21943;SDS011;11136;48.778;9.126;2022-09-03T00:13:08;1.92;;;1.40;;
21943;SDS011;11136;48.778;9.126;2022-09-03T00:15:43;4.75;;;1.33;;
21943;SDS011;11136;48.778;9.126;2022-09-03T00:20:46;2.28;;;1.30;;
21943;SDS011;11136;48.778;9.126;2022-09-03T00:23:23;1.35;;;1.23;;
21943;SDS011;11136;48.778;9.126;2022-09-03T00:25:53;2.90;;;1.30;;
21943;SDS011;11136;48.778;9.126;2022-09-03T00:28:29;2.47;;;1.33;;
21943;SDS011;11136;48.778;9.126;2022-09-03T00:33:36;1.83;;;1.20;;
21943;SDS011;11136;48.778;9.126;2022-09-03T00:38:49;1.60;;;1.00;;
21943;SDS011;11136;48.778;9.126;2022-09-03T00:49:05;2.75;;;1.33;;
21943;SDS011;11136;48.778;9.126;2022-09-03T00:55:05;3.67;;;1.63;;
21943;SDS011;11136;48.778;9.126;2022-09-03T01:00:23;3.30;;;1.05;;
21943;SDS011;11136;48.778;9.126;2022-09-03T01:05:25;1.42;;;1.33;;
21943;SDS011;11136;48.778;9.126;2022-09-03T01:16:49;3.47;;;1.38;;
21943;SDS011;11136;48.778;9.126;2022-09-03T01:19:40;2.40;;;1.08;;
21943;SDS011;11136;48.778;9.126;2022-09-03T01:23:09;4.40;;;1.17;;
21943;SDS011;11136;48.778;9.126;2022-09-03T01:25:34;3.47;;;1.40;;
21943;SDS011;11136;48.778;9.126;2022-09-03T01:30:41;3.88;;;1.45;;
21943;SDS011;11136;48.778;9.126;2022-09-03T01:39:00;1.63;;;1.00;;
21943;SDS011;11136;48.778;9.126;2022-09-03T01:52:15;3.97;;;1.70;;
21943;SDS011;11136;48.778;9.126;2022-09-03T01:55:03;2.33;;;1.48;;
21943;SDS011;11136;48.778;9.126;2022-09-03T01:57:38;2.88;;;1.30;;
21943;SDS011;11136;48.778;9.126;2022-09-03T02:00:12;3.00;;;1.38;;
21943;SDS011;11136;48.778;9.126;2022-09-03T02:02:44;3.90;;;1.60;;
21943;SDS011;11136;48.778;9.126;2022-09-03T02:05:22;3.75;;;1.60;;
21943;SDS011;11136;48.778;9.126;2022-09-03T02:07:56;3.90;;;1.45;;
21943;SDS011;11136;48.778;9.126;2022-09-03T02:10:25;3.75;;;1.20;;
21943;SDS011;11136;48.778;9.126;2022-09-03T02:12:58;2.35;;;1.15;;
21943;SDS011;11136;48.778;9.126;2022-09-03T02:15:32;4.18;;;1.48;;
21943;SDS011;11136;48.778;9.126;2022-09-03T02:18:02;2.97;;;1.13;;
21943;SDS011;11136;48.778;9.126;2022-09-03T02:20:30;3.28;;;1.50;;
21943;SDS011;11136;48.778;9.126;2022-09-03T02:22:56;2.55;;;1.45;;
21943;SDS011;11136;48.778;9.126;2022-09-03T02:25:23;1.95;;;1.40;;
21943;SDS011;11136;48.778;9.126;2022-09-03T02:28:00;6.20;;;1.65;;
21943;SDS011;11136;48.778;9.126;2022-09-03T02:30:27;2.78;;;1.50;;
21943;SDS011;11136;48.778;9.126;2022-09-03T02:32:52;5.68;;;1.38;;
21943;SDS011;11136;48.778;9.126;2022-09-03T02:35:18;3.15;;;1.50;;
21943;SDS011;11136;48.778;9.126;2022-09-03T02:37:44;2.35;;;1.40;;
21943;SDS011;11136;48.778;9.126;2022-09-03T02:40:09;3.75;;;1.38;;
21943;SDS011;11136;48.778;9.126;2022-09-03T02:42:36;2.47;;;1.20;;
21943;SDS011;11136;48.778;9.126;2022-09-03T02:47:53;3.53;;;1.33;;
21943;SDS011;11136;48.778;9.126;2022-09-03T02:50:21;1.73;;;1.40;;
21943;SDS011;11136;48.778;9.126;2022-09-03T02:52:47;2.17;;;1.10;;
21943;SDS011;11136;48.778;9.126;2022-09-03T02:55:13;4.72;;;1.42;;
21943;SDS011;11136;48.778;9.126;2022-09-03T02:57:39;2.90;;;1.73;;
21943;SDS011;11136;48.778;9.126;2022-09-03T03:00:05;2.45;;;1.42;;
21943;SDS011;11136;48.778;9.126;2022-09-03T03:02:32;6.07;;;1.92;;
21943;SDS011;11136;48.778;9.126;2022-09-03T03:04:57;4.03;;;1.20;;
21943;SDS011;11136;48.778;9.126;2022-09-03T03:07:23;2.90;;;1.13;;
21943;SDS011;11136;48.778;9.126;2022-09-03T03:09:50;2.40;;;1.73;;
21943;SDS011;11136;48.778;9.126;2022-09-03T03:12:16;1.75;;;1.20;;
21943;SDS011;11136;48.778;9.126;2022-09-03T03:14:42;2.13;;;1.40;;
21943;SDS011;11136;48.778;9.126;2022-09-03T03:17:07;1.90;;;1.20;;
21943;SDS011;11136;48.778;9.126;2022-09-03T03:19:33;1.98;;;1.23;;
21943;SDS011;11136;48.778;9.126;2022-09-03T03:21:59;3.70;;;1.52;;
21943;SDS011;11136;48.778;9.126;2022-09-03T03:24:24;2.92;;;1.45;;
21943;SDS011;11136;48.778;9.126;2022-09-03T03:26:50;3.60;;;1.58;;
21943;SDS011;11136;48.778;9.126;2022-09-03T03:29:18;3.10;;;1.40;;
21943;SDS011;11136;48.778;9.126;2022-09-03T03:31:44;1.90;;;1.10;;
21943;SDS011;11136;48.778;9.126;2022-09-03T03:34:10;3.10;;;1.60;;
21943;SDS011;11136;48.778;9.126;2022-09-03T03:36:35;4.38;;;1.45;;
21943;SDS011;11136;48.778;9.126;2022-09-03T03:39:01;3.80;;;1.60;;
21943;SDS011;11136;48.778;9.126;2022-09-03T03:41:28;2.85;;;1.50;;
21943;SDS011;11136;48.778;9.126;2022-09-03T03:43:57;2.22;;;1.30;;
21943;SDS011;11136;48.778;9.126;2022-09-03T03:46:24;1.48;;;1.30;;
21943;SDS011;11136;48.778;9.126;2022-09-03T03:48:54;4.90;;;1.50;;
21943;SDS011;11136;48.778;9.126;2022-09-03T03:51:20;1.85;;;1.30;;
21943;SDS011;11136;48.778;9.126;2022-09-03T03:53:45;1.73;;;1.20;;
21943;SDS011;11136;48.778;9.126;2022-09-03T03:56:12;2.75;;;1.48;;
21943;SDS011;11136;48.778;9.126;2022-09-03T03:58:40;4.10;;;1.33;;
21943;SDS011;11136;48.778;9.126;2022-09-03T04:01:09;1.83;;;1.58;;
21943;SDS011;11136;48.778;9.126;2022-09-03T04:03:36;2.85;;;1.13;;
21943;SDS011;11136;48.778;9.126;2022-09-03T04:06:02;1.40;;;1.30;;
21943;SDS011;11136;48.778;9.126;2022-09-03T04:08:29;1.65;;;1.30;;
21943;SDS011;11136;48.778;9.126;2022-09-03T04:10:58;2.03;;;1.30;;
21943;SDS011;11136;48.778;9.126;2022-09-03T04:13:29;1.63;;;1.40;;
21943;SDS011;11136;48.778;9.126;2022-09-03T04:16:02;1.58;;;1.20;;
21943;SDS011;11136;48.778;9.126;2022-09-03T04:18:38;1.88;;;1.30;;
21943;SDS011;11136;48.778;9.126;2022-09-03T04:21:06;2.15;;;1.40;;
21943;SDS011;11136;48.778;9.126;2022-09-03T04:23:37;3.33;;;1.65;;
21943;SDS011;11136;48.778;9.126;2022-09-03T04:26:04;2.85;;;1.70;;
21943;SDS011;11136;48.778;9.126;2022-09-03T04:28:31;2.53;;;1.77;;
21943;SDS011;11136;48.778;9.126;2022-09-03T04:31:04;2.45;;;1.70;;
21943;SDS011;11136;48.778;9.126;2022-09-03T04:33:32;3.50;;;1.92;;
21943;SDS011;11136;48.778;9.126;2022-09-03T04:36:02;3.22;;;1.50;;
21943;SDS011;11136;48.778;9.126;2022-09-03T04:38:29;5.60;;;2.00;;
21943;SDS011;11136;48.778;9.126;2022-09-03T04:40:56;3.00;;;1.60;;
21943;SDS011;11136;48.778;9.126;2022-09-03T04:43:23;3.28;;;1.50;;
21943;SDS011;11136;48.778;9.126;2022-09-03T04:45:49;2.05;;;1.27;;
21943;SDS011;11136;48.778;9.126;2022-09-03T04:48:14;2.50;;;1.45;;
21943;SDS011;11136;48.778;9.126;2022-09-03T04:50:40;2.58;;;1.50;;
21943;SDS011;11136;48.778;9.126;2022-09-03T04:53:06;3.08;;;1.42;;
21943;SDS011;11136;48.778;9.126;2022-09-03T04:55:34;1.80;;;1.50;;
21943;SDS011;11136;48.778;9.126;2022-09-03T04:58:01;4.00;;;1.17;;
21943;SDS011;11136;48.778;9.126;2022-09-03T05:00:26;3.40;;;1.50;;
21943;SDS011;11136;48.778;9.126;2022-09-03T05:02:52;3.03;;;1.65;;
21943;SDS011;11136;48.778;9.126;2022-09-03T05:05:18;3.38;;;1.70;;
21943;SDS011;11136;48.778;9.126;2022-09-03T05:07:44;2.40;;;1.45;;
21943;SDS011;11136;48.778;9.126;2022-09-03T05:10:10;3.38;;;1.50;;
21943;SDS011;11136;48.778;9.126;2022-09-03T05:12:40;2.75;;;1.83;;
21943;SDS011;11136;48.778;9.126;2022-09-03T05:15:06;3.40;;;1.63;;
21943;SDS011;11136;48.778;9.126;2022-09-03T05:17:32;4.95;;;1.40;;
21943;SDS011;11136;48.778;9.126;2022-09-03T05:19:58;2.97;;;1.52;;
21943;SDS011;11136;48.778;9.126;2022-09-03T05:22:23;3.63;;;2.30;;
21943;SDS011;11136;48.778;9.126;2022-09-03T05:24:49;2.22;;;1.80;;
21943;SDS011;11136;48.778;9.126;2022-09-03T05:27:15;2.42;;;1.88;;
21943;SDS011;11136;48.778;9.126;2022-09-03T05:29:44;2.33;;;1.60;;
21943;SDS011;11136;48.778;9.126;2022-09-03T05:32:10;4.00;;;1.77;;
21943;SDS011;11136;48.778;9.126;2022-09-03T05:34:41;2.05;;;1.50;;
21943;SDS011;11136;48.778;9.126;2022-09-03T05:37:07;3.42;;;1.88;;
21943;SDS011;11136;48.778;9.126;2022-09-03T05:39:33;2.80;;;1.85;;
21943;SDS011;11136;48.778;9.126;2022-09-03T05:41:58;3.13;;;2.22;;
21943;SDS011;11136;48.778;9.126;2022-09-03T05:44:24;1.90;;;1.70;;
21943;SDS011;11136;48.778;9.126;2022-09-03T05:46:49;3.25;;;1.70;;
21943;SDS011;11136;48.778;9.126;2022-09-03T05:49:15;5.28;;;2.00;;
21943;SDS011;11136;48.778;9.126;2022-09-03T05:51:41;5.35;;;1.70;;
21943;SDS011;11136;48.778;9.126;2022-09-03T05:54:09;2.65;;;1.98;;
21943;SDS011;11136;48.778;9.126;2022-09-03T05:56:36;3.38;;;1.60;;
21943;SDS011;11136;48.778;9.126;2022-09-03T05:59:07;7.25;;;2.00;;
21943;SDS011;11136;48.778;9.126;2022-09-03T06:01:35;3.40;;;2.20;;
21943;SDS011;11136;48.778;9.126;2022-09-03T06:04:05;8.00;;;2.50;;
21943;SDS011;11136;48.778;9.126;2022-09-03T06:06:34;3.80;;;2.08;;
21943;SDS011;11136;48.778;9.126;2022-09-03T06:09:04;4.28;;;2.17;;
21943;SDS011;11136;48.778;9.126;2022-09-03T06:11:32;3.10;;;2.30;;
21943;SDS011;11136;48.778;9.126;2022-09-03T06:13:59;3.22;;;2.17;;
21943;SDS011;11136;48.778;9.126;2022-09-03T06:16:29;1.95;;;1.58;;
21943;SDS011;11136;48.778;9.126;2022-09-03T06:18:55;7.22;;;3.13;;
21943;SDS011;11136;48.778;9.126;2022-09-03T06:21:21;3.47;;;1.90;;
21943;SDS011;11136;48.778;9.126;2022-09-03T06:23:54;3.50;;;1.83;;
21943;SDS011;11136;48.778;9.126;2022-09-03T06:26:20;4.78;;;2.67;;
21943;SDS011;11136;48.778;9.126;2022-09-03T06:28:47;4.20;;;2.13;;
21943;SDS011;11136;48.778;9.126;2022-09-03T06:31:14;2.75;;;2.17;;
21943;SDS011;11136;48.778;9.126;2022-09-03T06:33:41;2.88;;;2.10;;
21943;SDS011;11136;48.778;9.126;2022-09-03T06:36:08;2.78;;;2.28;;
21943;SDS011;11136;48.778;9.126;2022-09-03T06:38:37;2.40;;;2.10;;
21943;SDS011;11136;48.778;9.126;2022-09-03T06:41:04;3.65;;;2.30;;
21943;SDS011;11136;48.778;9.126;2022-09-03T06:43:32;3.80;;;2.30;;
21943;SDS011;11136;48.778;9.126;2022-09-03T06:46:01;4.03;;;2.35;;
21943;SDS011;11136;48.778;9.126;2022-09-03T06:48:33;4.20;;;2.30;;
21943;SDS011;11136;48.778;9.126;2022-09-03T06:51:03;4.63;;;2.20;;
21943;SDS011;11136;48.778;9.126;2022-09-03T06:53:31;4.82;;;2.20;;
21943;SDS011;11136;48.778;9.126;2022-09-03T06:55:59;5.43;;;2.40;;
21943;SDS011;11136;48.778;9.126;2022-09-03T06:58:27;5.47;;;2.50;;
21943;SDS011;11136;48.778;9.126;2022-09-03T07:01:05;15.50;;;2.25;;
21943;SDS011;11136;48.778;9.126;2022-09-03T07:03:33;5.70;;;2.38;;
21943;SDS011;11136;48.778;9.126;2022-09-03T07:06:01;3.72;;;2.58;;
21943;SDS011;11136;48.778;9.126;2022-09-03T07:08:27;4.22;;;2.55;;
21943;SDS011;11136;48.778;9.126;2022-09-03T07:10:54;3.58;;;2.50;;
21943;SDS011;11136;48.778;9.126;2022-09-03T07:13:20;4.70;;;2.55;;
21943;SDS011;11136;48.778;9.126;2022-09-03T07:15:45;3.65;;;2.38;;
21943;SDS011;11136;48.778;9.126;2022-09-03T07:18:11;4.55;;;2.67;;
21943;SDS011;11136;48.778;9.126;2022-09-03T07:20:36;5.18;;;3.00;;
21943;SDS011;11136;48.778;9.126;2022-09-03T07:23:02;5.10;;;2.85;;
21943;SDS011;11136;48.778;9.126;2022-09-03T07:25:27;5.57;;;2.90;;
21943;SDS011;11136;48.778;9.126;2022-09-03T07:27:54;3.72;;;2.78;;
21943;SDS011;11136;48.778;9.126;2022-09-03T07:30:21;2.88;;;2.53;;
21943;SDS011;11136;48.778;9.126;2022-09-03T07:32:46;3.28;;;2.55;;
21943;SDS011;11136;48.778;9.126;2022-09-03T07:35:15;12.43;;;3.33;;
21943;SDS011;11136;48.778;9.126;2022-09-03T07:37:42;3.70;;;2.95;;
21943;SDS011;11136;48.778;9.126;2022-09-03T07:40:09;2.08;;;1.88;;
21943;SDS011;11136;48.778;9.126;2022-09-03T07:42:36;6.43;;;2.60;;
21943;SDS011;11136;48.778;9.126;2022-09-03T07:45:06;3.53;;;2.63;;
21943;SDS011;11136;48.778;9.126;2022-09-03T07:47:34;7.18;;;2.42;;
21943;SDS011;11136;48.778;9.126;2022-09-03T07:50:00;5.43;;;2.60;;
21943;SDS011;11136;48.778;9.126;2022-09-03T07:52:27;4.15;;;2.53;;
21943;SDS011;11136;48.778;9.126;2022-09-03T07:54:53;8.23;;;2.50;;
21943;SDS011;11136;48.778;9.126;2022-09-03T07:57:18;2.83;;;2.42;;
21943;SDS011;11136;48.778;9.126;2022-09-03T07:59:44;7.05;;;3.00;;
21943;SDS011;11136;48.778;9.126;2022-09-03T08:02:09;3.95;;;2.60;;
21943;SDS011;11136;48.778;9.126;2022-09-03T08:04:35;3.08;;;2.72;;
21943;SDS011;11136;48.778;9.126;2022-09-03T08:07:00;6.07;;;2.80;;
21943;SDS011;11136;48.778;9.126;2022-09-03T08:09:27;4.00;;;2.75;;
21943;SDS011;11136;48.778;9.126;2022-09-03T08:11:52;6.70;;;2.92;;
21943;SDS011;11136;48.778;9.126;2022-09-03T08:14:18;4.85;;;3.35;;
21943;SDS011;11136;48.778;9.126;2022-09-03T08:16:44;3.65;;;2.85;;
21943;SDS011;11136;48.778;9.126;2022-09-03T08:19:14;4.93;;;2.63;;
21943;SDS011;11136;48.778;9.126;2022-09-03T08:21:42;2.83;;;2.60;;
21943;SDS011;11136;48.778;9.126;2022-09-03T08:24:08;3.15;;;2.85;;
21943;SDS011;11136;48.778;9.126;2022-09-03T08:26:39;8.25;;;2.40;;
21943;SDS011;11136;48.778;9.126;2022-09-03T08:29:06;2.92;;;2.10;;
21943;SDS011;11136;48.778;9.126;2022-09-03T08:31:33;4.22;;;2.50;;
21943;SDS011;11136;48.778;9.126;2022-09-03T08:34:00;3.40;;;2.85;;
21943;SDS011;11136;48.778;9.126;2022-09-03T08:36:31;2.72;;;2.30;;
21943;SDS011;11136;48.778;9.126;2022-09-03T08:39:01;3.67;;;2.33;;
21943;SDS011;11136;48.778;9.126;2022-09-03T08:44:14;2.92;;;2.42;;
21943;SDS011;11136;48.778;9.126;2022-09-03T08:46:48;4.00;;;2.28;;
21943;SDS011;11136;48.778;9.126;2022-09-03T08:49:44;3.50;;;2.13;;
21943;SDS011;11136;48.778;9.126;2022-09-03T08:52:37;2.83;;;2.47;;
21943;SDS011;11136;48.778;9.126;2022-09-03T08:57:48;3.40;;;2.40;;
21943;SDS011;11136;48.778;9.126;2022-09-03T09:00:17;4.30;;;2.25;;
21943;SDS011;11136;48.778;9.126;2022-09-03T09:02:52;2.70;;;2.42;;
21943;SDS011;11136;48.778;9.126;2022-09-03T09:05:38;4.50;;;2.83;;
21943;SDS011;11136;48.778;9.126;2022-09-03T09:14:03;4.53;;;2.92;;
21943;SDS011;11136;48.778;9.126;2022-09-03T09:19:40;6.82;;;2.88;;
21943;SDS011;11136;48.778;9.126;2022-09-03T09:22:37;5.65;;;2.97;;
21943;SDS011;11136;48.778;9.126;2022-09-03T09:25:07;7.20;;;3.05;;
21943;SDS011;11136;48.778;9.126;2022-09-03T09:27:40;3.00;;;2.40;;
21943;SDS011;11136;48.778;9.126;2022-09-03T09:30:15;4.63;;;2.80;;
21943;SDS011;11136;48.778;9.126;2022-09-03T09:32:42;4.32;;;2.90;;
21943;SDS011;11136;48.778;9.126;2022-09-03T09:35:08;2.92;;;2.63;;
21943;SDS011;11136;48.778;9.126;2022-09-03T09:37:45;4.90;;;3.08;;
21943;SDS011;11136;48.778;9.126;2022-09-03T09:40:20;2.50;;;2.30;;
21943;SDS011;11136;48.778;9.126;2022-09-03T09:45:30;4.53;;;2.50;;
21943;SDS011;11136;48.778;9.126;2022-09-03T09:47:58;4.35;;;2.30;;
21943;SDS011;11136;48.778;9.126;2022-09-03T09:50:24;2.58;;;2.38;;
21943;SDS011;11136;48.778;9.126;2022-09-03T09:53:03;3.00;;;2.28;;
21943;SDS011;11136;48.778;9.126;2022-09-03T09:55:47;4.53;;;2.97;;
21943;SDS011;11136;48.778;9.126;2022-09-03T09:58:20;4.75;;;2.67;;
21943;SDS011;11136;48.778;9.126;2022-09-03T10:03:50;4.38;;;2.20;;
21943;SDS011;11136;48.778;9.126;2022-09-03T10:06:19;5.13;;;2.42;;
21943;SDS011;11136;48.778;9.126;2022-09-03T10:11:37;3.65;;;2.65;;
21943;SDS011;11136;48.778;9.126;2022-09-03T10:14:08;4.97;;;2.50;;
21943;SDS011;11136;48.778;9.126;2022-09-03T10:16:42;5.82;;;2.90;;
21943;SDS011;11136;48.778;9.126;2022-09-03T10:19:18;2.55;;;2.35;;
21943;SDS011;11136;48.778;9.126;2022-09-03T10:21:54;5.22;;;2.90;;
21943;SDS011;11136;48.778;9.126;2022-09-03T10:24:29;2.33;;;2.13;;
21943;SDS011;11136;48.778;9.126;2022-09-03T10:27:03;3.15;;;2.40;;
21943;SDS011;11136;48.778;9.126;2022-09-03T10:29:31;7.88;;;3.20;;
21943;SDS011;11136;48.778;9.126;2022-09-03T10:35:09;5.13;;;2.85;;
21943;SDS011;11136;48.778;9.126;2022-09-03T10:37:53;4.55;;;2.45;;
21943;SDS011;11136;48.778;9.126;2022-09-03T10:46:45;3.17;;;2.70;;
21943;SDS011;11136;48.778;9.126;2022-09-03T10:49:48;3.20;;;2.55;;
21943;SDS011;11136;48.778;9.126;2022-09-03T10:52:25;3.83;;;2.67;;
21943;SDS011;11136;48.778;9.126;2022-09-03T10:55:02;4.45;;;2.63;;
21943;SDS011;11136;48.778;9.126;2022-09-03T11:00:35;4.45;;;2.53;;
21943;SDS011;11136;48.778;9.126;2022-09-03T11:06:19;3.65;;;2.50;;
21943;SDS011;11136;48.778;9.126;2022-09-03T11:08:53;3.20;;;2.55;;
21943;SDS011;11136;48.778;9.126;2022-09-03T11:11:27;3.13;;;2.65;;
21943;SDS011;11136;48.778;9.126;2022-09-03T11:16:41;4.35;;;2.42;;
21943;SDS011;11136;48.778;9.126;2022-09-03T11:19:12;3.00;;;2.50;;
21943;SDS011;11136;48.778;9.126;2022-09-03T11:21:42;4.97;;;3.10;;
21943;SDS011;11136;48.778;9.126;2022-09-03T11:26:43;3.22;;;2.75;;
21943;SDS011;11136;48.778;9.126;2022-09-03T11:29:19;3.55;;;3.22;;
21943;SDS011;11136;48.778;9.126;2022-09-03T11:32:03;4.70;;;2.97;;
21943;SDS011;11136;48.778;9.126;2022-09-03T11:34:50;2.67;;;2.47;;
21943;SDS011;11136;48.778;9.126;2022-09-03T11:42:42;3.78;;;3.00;;
21943;SDS011;11136;48.778;9.126;2022-09-03T11:45:13;3.25;;;2.90;;
21943;SDS011;11136;48.778;9.126;2022-09-03T11:47:50;5.38;;;3.08;;
21943;SDS011;11136;48.778;9.126;2022-09-03T11:52:51;3.85;;;2.88;;
21943;SDS011;11136;48.778;9.126;2022-09-03T11:55:32;3.33;;;2.92;;
21943;SDS011;11136;48.778;9.126;2022-09-03T11:58:16;4.72;;;3.28;;
21943;SDS011;11136;48.778;9.126;2022-09-03T12:00:49;5.72;;;3.15;;
21943;SDS011;11136;48.778;9.126;2022-09-03T12:03:20;3.83;;;3.03;;
21943;SDS011;11136;48.778;9.126;2022-09-03T12:12:08;4.75;;;3.50;;
21943;SDS011;11136;48.778;9.126;2022-09-03T12:14:57;4.22;;;2.88;;
21943;SDS011;11136;48.778;9.126;2022-09-03T12:17:58;3.40;;;3.05;;
21943;SDS011;11136;48.778;9.126;2022-09-03T12:21:07;5.35;;;3.22;;
21943;SDS011;11136;48.778;9.126;2022-09-03T12:26:04;5.13;;;3.10;;
21943;SDS011;11136;48.778;9.126;2022-09-03T12:28:36;7.20;;;3.17;;
21943;SDS011;11136;48.778;9.126;2022-09-03T12:31:12;5.78;;;3.20;;
21943;SDS011;11136;48.778;9.126;2022-09-03T12:33:53;4.38;;;3.08;;
21943;SDS011;11136;48.778;9.126;2022-09-03T12:36:35;4.93;;;2.92;;
21943;SDS011;11136;48.778;9.126;2022-09-03T12:39:17;7.80;;;2.85;;
21943;SDS011;11136;48.778;9.126;2022-09-03T12:44:28;6.03;;;2.53;;
21943;SDS011;11136;48.778;9.126;2022-09-03T12:47:15;6.00;;;2.03;;
21943;SDS011;11136;48.778;9.126;2022-09-03T12:49:43;7.82;;;2.00;;
21943;SDS011;11136;48.778;9.126;2022-09-03T12:54:50;6.25;;;2.28;;
21943;SDS011;11136;48.778;9.126;2022-09-03T12:57:19;8.30;;;1.98;;
21943;SDS011;11136;48.778;9.126;2022-09-03T12:59:47;5.77;;;2.17;;
21943;SDS011;11136;48.778;9.126;2022-09-03T13:02:29;2.92;;;1.42;;
21943;SDS011;11136;48.778;9.126;2022-09-03T13:05:01;2.58;;;1.50;;
21943;SDS011;11136;48.778;9.126;2022-09-03T13:07:30;7.20;;;1.85;;
21943;SDS011;11136;48.778;9.126;2022-09-03T13:10:04;3.33;;;1.63;;
21943;SDS011;11136;48.778;9.126;2022-09-03T13:12:42;3.47;;;1.90;;
21943;SDS011;11136;48.778;9.126;2022-09-03T13:15:16;2.05;;;1.02;;
21943;SDS011;11136;48.778;9.126;2022-09-03T13:18:04;2.92;;;1.40;;
21943;SDS011;11136;48.778;9.126;2022-09-03T13:26:06;3.75;;;1.23;;
21943;SDS011;11136;48.778;9.126;2022-09-03T13:28:56;2.05;;;1.67;;
21943;SDS011;11136;48.778;9.126;2022-09-03T13:34:21;3.40;;;1.63;;
21943;SDS011;11136;48.778;9.126;2022-09-03T13:36:58;4.05;;;1.55;;
21943;SDS011;11136;48.778;9.126;2022-09-03T13:39:41;4.53;;;1.43;;
21943;SDS011;11136;48.778;9.126;2022-09-03T13:42:16;4.88;;;1.60;;
21943;SDS011;11136;48.778;9.126;2022-09-03T13:48:39;4.75;;;1.35;;
21943;SDS011;11136;48.778;9.126;2022-09-03T13:51:06;3.13;;;1.27;;
21943;SDS011;11136;48.778;9.126;2022-09-03T13:59:28;2.95;;;1.40;;
21943;SDS011;11136;48.778;9.126;2022-09-03T14:05:46;3.30;;;1.33;;
21943;SDS011;11136;48.778;9.126;2022-09-03T14:25:52;2.08;;;1.45;;
21943;SDS011;11136;48.778;9.126;2022-09-03T14:28:35;2.92;;;1.05;;
21943;SDS011;11136;48.778;9.126;2022-09-03T14:34:02;2.88;;;1.40;;
21943;SDS011;11136;48.778;9.126;2022-09-03T14:40:02;1.42;;;1.30;;
21943;SDS011;11136;48.778;9.126;2022-09-03T14:45:16;1.65;;;1.17;;
21943;SDS011;11136;48.778;9.126;2022-09-03T14:56:20;2.25;;;1.40;;
21943;SDS011;11136;48.778;9.126;2022-09-03T15:07:42;9.50;;;1.60;;
21943;SDS011;11136;48.778;9.126;2022-09-03T15:13:17;4.50;;;1.30;;
21943;SDS011;11136;48.778;9.126;2022-09-03T15:26:54;1.30;;;1.20;;
21943;SDS011;11136;48.778;9.126;2022-09-03T15:37:44;2.72;;;1.58;;
21943;SDS011;11136;48.778;9.126;2022-09-03T15:43:29;3.22;;;1.50;;
21943;SDS011;11136;48.778;9.126;2022-09-03T15:45:58;2.58;;;1.40;;
21943;SDS011;11136;48.778;9.126;2022-09-03T15:54:12;2.42;;;2.13;;
21943;SDS011;11136;48.778;9.126;2022-09-03T15:56:53;2.33;;;1.73;;
21943;SDS011;11136;48.778;9.126;2022-09-03T15:59:59;4.03;;;1.40;;
21943;SDS011;11136;48.778;9.126;2022-09-03T16:05:06;3.70;;;2.00;;
21943;SDS011;11136;48.778;9.126;2022-09-03T16:08:16;2.20;;;1.92;;
21943;SDS011;11136;48.778;9.126;2022-09-03T16:11:06;10.05;;;2.22;;
21943;SDS011;11136;48.778;9.126;2022-09-03T16:13:54;6.18;;;1.65;;
21943;SDS011;11136;48.778;9.126;2022-09-03T16:19:13;2.00;;;1.52;;
21943;SDS011;11136;48.778;9.126;2022-09-03T16:21:50;3.08;;;1.80;;
21943;SDS011;11136;48.778;9.126;2022-09-03T16:24:25;2.22;;;1.70;;
21943;SDS011;11136;48.778;9.126;2022-09-03T16:27:16;2.58;;;1.50;;
21943;SDS011;11136;48.778;9.126;2022-09-03T16:29:54;2.22;;;2.03;;
21943;SDS011;11136;48.778;9.126;2022-09-03T16:35:16;3.35;;;1.80;;
21943;SDS011;11136;48.778;9.126;2022-09-03T16:43:28;3.15;;;2.08;;
21943;SDS011;11136;48.778;9.126;2022-09-03T16:46:17;2.35;;;2.00;;
21943;SDS011;11136;48.778;9.126;2022-09-03T16:49:06;3.13;;;2.60;;
21943;SDS011;11136;48.778;9.126;2022-09-03T16:57:54;7.23;;;3.93;;
21943;SDS011;11136;48.778;9.126;2022-09-03T17:11:56;2.80;;;2.25;;
21943;SDS011;11136;48.778;9.126;2022-09-03T17:20:12;5.22;;;2.28;;
21943;SDS011;11136;48.778;9.126;2022-09-03T17:25:29;3.58;;;2.30;;
21943;SDS011;11136;48.778;9.126;2022-09-03T17:36:26;2.15;;;1.90;;
21943;SDS011;11136;48.778;9.126;2022-09-03T17:41:49;4.78;;;2.80;;
21943;SDS011;11136;48.778;9.126;2022-09-03T18:00:43;5.60;;;4.43;;
21943;SDS011;11136;48.778;9.126;2022-09-03T18:06:28;7.80;;;2.47;;
21943;SDS011;11136;48.778;9.126;2022-09-03T18:09:39;4.22;;;2.17;;
21943;SDS011;11136;48.778;9.126;2022-09-03T18:15:08;4.20;;;2.70;;
21943;SDS011;11136;48.778;9.126;2022-09-03T18:17:56;2.30;;;1.85;;
21943;SDS011;11136;48.778;9.126;2022-09-03T18:20:26;4.82;;;2.40;;
21943;SDS011;11136;48.778;9.126;2022-09-03T18:23:18;3.40;;;2.38;;
21943;SDS011;11136;48.778;9.126;2022-09-03T18:26:22;5.15;;;2.05;;
21943;SDS011;11136;48.778;9.126;2022-09-03T18:29:28;2.63;;;2.30;;
21943;SDS011;11136;48.778;9.126;2022-09-03T18:32:37;3.80;;;2.53;;
21943;SDS011;11136;48.778;9.126;2022-09-03T18:35:22;5.10;;;2.65;;
21943;SDS011;11136;48.778;9.126;2022-09-03T18:38:08;2.78;;;1.95;;
21943;SDS011;11136;48.778;9.126;2022-09-03T18:40:57;5.55;;;2.45;;
21943;SDS011;11136;48.778;9.126;2022-09-03T18:43:55;3.55;;;2.42;;
21943;SDS011;11136;48.778;9.126;2022-09-03T18:47:05;4.47;;;2.53;;
21943;SDS011;11136;48.778;9.126;2022-09-03T18:50:14;3.95;;;2.38;;
21943;SDS011;11136;48.778;9.126;2022-09-03T18:53:15;2.45;;;2.25;;
21943;SDS011;11136;48.778;9.126;2022-09-03T18:56:20;4.57;;;2.13;;
21943;SDS011;11136;48.778;9.126;2022-09-03T18:59:45;4.63;;;2.92;;
21943;SDS011;11136;48.778;9.126;2022-09-03T19:09:29;3.42;;;2.30;;
21943;SDS011;11136;48.778;9.126;2022-09-03T19:12:39;2.97;;;2.28;;
21943;SDS011;11136;48.778;9.126;2022-09-03T19:15:46;4.57;;;3.25;;
21943;SDS011;11136;48.778;9.126;2022-09-03T19:22:03;3.75;;;2.33;;
21943;SDS011;11136;48.778;9.126;2022-09-03T19:25:03;4.78;;;3.53;;
21943;SDS011;11136;48.778;9.126;2022-09-03T19:28:09;3.33;;;2.85;;
21943;SDS011;11136;48.778;9.126;2022-09-03T19:49:49;3.65;;;2.75;;
21943;SDS011;11136;48.778;9.126;2022-09-03T19:52:56;7.60;;;3.20;;
21943;SDS011;11136;48.778;9.126;2022-09-03T19:55:48;5.95;;;3.25;;
21943;SDS011;11136;48.778;9.126;2022-09-03T19:58:54;4.18;;;2.78;;
21943;SDS011;11136;48.778;9.126;2022-09-03T20:01:41;4.28;;;2.55;;
21943;SDS011;11136;48.778;9.126;2022-09-03T20:04:40;3.30;;;2.83;;
21943;SDS011;11136;48.778;9.126;2022-09-03T20:07:29;3.65;;;2.53;;
21943;SDS011;11136;48.778;9.126;2022-09-03T20:10:17;4.53;;;2.83;;
21943;SDS011;11136;48.778;9.126;2022-09-03T20:13:09;5.50;;;2.67;;
21943;SDS011;11136;48.778;9.126;2022-09-03T20:18:22;5.43;;;3.35;;
21943;SDS011;11136;48.778;9.126;2022-09-03T20:20:53;3.50;;;2.58;;
21943;SDS011;11136;48.778;9.126;2022-09-03T20:29:02;5.22;;;3.40;;
21943;SDS011;11136;48.778;9.126;2022-09-03T20:32:01;9.25;;;3.80;;
21943;SDS011;11136;48.778;9.126;2022-09-03T20:34:52;10.38;;;6.88;;
21943;SDS011;11136;48.778;9.126;2022-09-03T20:37:40;6.03;;;4.57;;
21943;SDS011;11136;48.778;9.126;2022-09-03T20:43:09;4.03;;;3.40;;
21943;SDS011;11136;48.778;9.126;2022-09-03T20:51:19;7.65;;;3.72;;
21943;SDS011;11136;48.778;9.126;2022-09-03T20:56:58;4.60;;;3.22;;
21943;SDS011;11136;48.778;9.126;2022-09-03T20:59:45;5.53;;;3.58;;
21943;SDS011;11136;48.778;9.126;2022-09-03T21:15:31;4.10;;;2.67;;
21943;SDS011;11136;48.778;9.126;2022-09-03T21:18:15;5.82;;;3.13;;
21943;SDS011;11136;48.778;9.126;2022-09-03T21:23:42;6.40;;;2.83;;
21943;SDS011;11136;48.778;9.126;2022-09-03T21:26:31;4.05;;;2.97;;
21943;SDS011;11136;48.778;9.126;2022-09-03T21:31:53;10.40;;;3.47;;
21943;SDS011;11136;48.778;9.126;2022-09-03T21:34:27;6.20;;;2.95;;